Flight Track Log - Related Links

Times and Time Zones

All times are in EDT time to prevent confusion due to time zone crossing. See the N61TF flight status page for this flight to view local times or setup timezone preferences in your user account.

Time Position Orientation Groundspeed Altitude Reporting Facility
EDT Latitude Longitude Course Direction KTS MPH feet Rate Location/Type
Wed 10:38:44 PM 32.7447 -117.2206 301° West 195 224 1,700  Level Los Angeles Center
Wed 10:39:45 PM 32.7778 -117.2867 301° West 237 273 4,800 2,780 Climbing Los Angeles Center
Wed 10:40:47 PM 32.8150 -117.3550 303° West 255 293 7,400 2,516 Climbing Los Angeles Center
Wed 10:41:49 PM 32.8550 -117.4356 301° West 275 316 10,000 2,244 Climbing Los Angeles Center
Wed 10:42:50 PM 32.9108 -117.5094 312° West 294 338 12,000 2,439 Climbing Los Angeles Center
Wed 10:43:52 PM 32.9964 -117.6100 315° West 351 404 15,000 2,661 Climbing Los Angeles Center
Wed 10:44:54 PM 33.0686 -117.6989 314° West 369 425 17,500 2,371 Climbing Los Angeles Center
Wed 10:45:56 PM 33.1419 -117.7903 314° West 378 435 19,900 2,293 Climbing Los Angeles Center
Wed 10:46:57 PM 33.2136 -117.8933 310° West 396 456 22,200 2,098 Climbing Los Angeles Center
Wed 10:47:59 PM 33.2886 -117.9997 310° West 413 475 24,200 1,935 Climbing Los Angeles Center
Wed 10:49:01 PM 33.3667 -118.1103 310° West 429 494 26,200 1,951 Climbing Los Angeles Center
Wed 10:50:02 PM 33.4456 -118.2233 310° West 437 503 28,200 2,146 Climbing Los Angeles Center
Wed 10:51:04 PM 33.5414 -118.3631 309° West 446 513 30,600 1,902 Climbing Los Angeles Center
Wed 10:52:05 PM 33.6244 -118.4822 310° West 455 524 32,100 1,366 Climbing Los Angeles Center
Wed 10:53:07 PM 33.7161 -118.5956 314° West 463 533 33,400 1,258 Climbing Los Angeles Center
Wed 10:54:09 PM 33.8117 -118.7008 318° Northwest 462 532 34,700 1,171 Climbing Los Angeles Center
Wed 10:55:10 PM 33.9050 -118.8056 317° Northwest 458 527 35,800 634 Climbing Los Angeles Center
Wed 10:56:12 PM 33.9994 -118.9111 317° Northwest 461 531 36,000 97 Climbing Los Angeles Center
Wed 10:57:14 PM 34.0889 -119.0131 317° Northwest 446 513 36,000  Level Los Angeles Center
Wed 10:58:15 PM 34.1781 -119.1131 317° Northwest 440 506 36,000  Level Los Angeles Center
Wed 10:59:17 PM 34.2669 -119.2153 316° Northwest 441 507 36,000  Level Los Angeles Center
Wed 11:00:19 PM 34.3561 -119.3172 317° Northwest 442 509 36,000  Level Los Angeles Center
Wed 11:01:20 PM 34.4647 -119.4394 317° Northwest 444 511 36,000 -293 Level Los Angeles Center
Wed 11:02:22 PM 34.5558 -119.5439 317° Northwest 450 518 35,400 -585 Descending Los Angeles Center
Wed 11:03:23 PM 34.6428 -119.6397 318° Northwest 453 521 34,800 -683 Descending Los Angeles Center
Wed 11:04:25 PM 34.7325 -119.7433 317° Northwest 447 514 34,000 -871 Descending Los Angeles Center
Wed 11:05:27 PM 34.8406 -119.8672 317° Northwest 445 512 33,000 -878 Descending Los Angeles Center
Wed 11:06:28 PM 34.9303 -119.9711 317° Northwest 445 512 32,200 -780 Descending Los Angeles Center
Wed 11:07:30 PM 35.0194 -120.0739 317° Northwest 442 509 31,400 -774 Descending Los Angeles Center
Wed 11:08:32 PM 35.1017 -120.1703 316° Northwest 446 513 30,600 -683 Descending Los Angeles Center
Wed 11:09:33 PM 35.1917 -120.2744 317° Northwest 449 517 30,000 -390 Descending Los Angeles Center
Wed 11:10:35 PM 35.2983 -120.3994 316° Northwest 445 512 29,800 -581 Descending Los Angeles Center
Wed 11:11:37 PM 35.3897 -120.5036 317° Northwest 453 521 28,800 -968 Descending Los Angeles Center
Wed 11:12:39 PM 35.4883 -120.5967 322° Northwest 449 517 27,800 -1,016 Descending Los Angeles Center
Wed 11:13:41 PM 35.5911 -120.6819 326° Northwest 447 514 26,700 -1,317 Descending Los Angeles Center
Wed 11:14:42 PM 35.6889 -120.7658 325° Northwest 434 499 25,100 -1,707 Descending Los Angeles Center
Wed 11:15:44 PM 35.7853 -120.8467 326° Northwest 423 487 23,200 -1,935 Descending Los Angeles Center
Wed 11:16:46 PM 35.8964 -120.9414 325° Northwest 413 475 21,100 -1,902 Descending Los Angeles Center
Wed 11:17:47 PM 35.9867 -121.0181 326° Northwest 404 465 19,300 -1,615 Descending Los Angeles Center
Wed 11:18:56 PM 36.0750 -121.0936 325° Northwest 390 449 17,600 -1,800 Descending Oakland Center
Wed 11:19:57 PM 36.1792 -121.1822 326° Northwest 380 437 15,400 -1,967 Descending Oakland Center
Wed 11:20:58 PM 36.2622 -121.2536 325° Northwest 369 425 13,600 -1,770 Descending Oakland Center
Wed 11:21:59 PM 36.3433 -121.3233 325° Northwest 359 413 11,800 -1,721 Descending Oakland Center
Wed 11:23:00 PM 36.4217 -121.3911 325° Northwest 347 399 10,100 -1,377 Descending Oakland Center
Wed 11:24:01 PM 36.4906 -121.4508 325° Northwest 310 357 9,000 -1,180 Descending Oakland Center
Wed 11:25:02 PM 36.5525 -121.5061 324° Northwest 278 320 7,700 -1,180 Descending Oakland Center
Wed 11:26:03 PM 36.6133 -121.5594 325° Northwest 270 311 6,600 -984 Descending Oakland Center
Wed 11:27:04 PM 36.6689 -121.6150 321° Northwest 260 299 5,700 -950 Descending Oakland Center
Wed 11:27:44 PM 36.6833 -121.6833 285° West 256 295 5,000 -453 Descending Northern Cal TRACON
Wed 11:28:50 PM 36.6833 -121.7667 270° West 228 262 4,900  Descending Northern Cal TRACON
Wed 11:29:44 PM 36.7000 -121.8500 284° West 230 265 5,000 -263 Climbing Northern Cal TRACON
Wed 11:30:44 PM 36.7167 -121.9333 284° West 222 255 4,400 -900 Descending Northern Cal TRACON
Wed 11:31:44 PM 36.7167 -122.0000 270° West 208 239 3,200 -700 Descending Northern Cal TRACON
Wed 11:32:44 PM 36.7000 -122.0667 253° West 202 232 3,000 -95 Descending Northern Cal TRACON
Wed 11:33:50 PM 36.6500 -122.0500 165° South 231 266 3,000 -190 Level Northern Cal TRACON
Wed 11:34:50 PM 36.6333 -121.9833 107° East 198 228 2,600 -737 Descending Northern Cal TRACON
Wed 11:35:44 PM 36.6167 -121.9333 113° Southeast 153 176 1,600 -950 Descending Northern Cal TRACON
Wed 11:36:50 PM 36.6000 -121.8833 113° Southeast 149 171 700 -818 Descending Northern Cal TRACON

Login

Don't have an account? Register now (free) for customized features, flight alerts, and more!